Time;durP1;ratioP1;P1;durP2;ratioP2;P2;SDS_P1;SDS_P2;PMS_P1;PMS_P2;Temp;Humidity;BMP_temperature;BMP_pressure;BME280_temperature;BME280_humidity;BME280_pressure;Samples;Min_cycle;Max_cycle;Signal;HPM_P1;HPM_P2
2022/11/29 06:03:52;;;;;;;69.60;15.02;;;;;;;7.84;100.00;101626.75;5008566;28;20136;-76
2022/11/29 06:06:31;;;;;;;80.53;16.77;;;;;;;7.64;100.00;101626.44;5034234;28;20075;-74
2022/11/29 06:09:13;;;;;;;42.35;16.35;;;;;;;7.70;100.00;101635.41;5040812;28;20036;-73
2022/11/29 06:14:16;;;;;;;49.55;16.55;;;;;;;7.76;100.00;101642.41;5072714;22;20945;-73
2022/11/29 06:17:24;;;;;;;32.28;13.63;;;;;;;7.91;100.00;101647.38;5032996;28;20037;-75
2022/11/29 06:20:17;;;;;;;32.72;14.32;;;;;;;8.00;100.00;101644.50;5035591;28;20041;-74
2022/11/29 06:23:06;;;;;;;36.58;13.85;;;;;;;7.94;100.00;101652.25;5039219;28;20025;-74
2022/11/29 06:25:42;;;;;;;39.47;16.10;;;;;;;7.84;100.00;101652.69;5020090;28;20033;-72
2022/11/29 06:28:44;;;;;;;59.30;15.20;;;;;;;7.61;100.00;101655.00;5032778;28;20512;-74
2022/11/29 06:31:17;;;;;;;34.65;15.40;;;;;;;7.82;100.00;101655.00;5031273;28;20033;-75
2022/11/29 06:33:57;;;;;;;36.15;15.68;;;;;;;7.98;100.00;101657.16;5041803;28;20021;-72
2022/11/29 06:36:39;;;;;;;40.05;14.18;;;;;;;7.66;100.00;101663.13;5041773;28;20040;-72
2022/11/29 06:39:05;;;;;;;33.85;14.15;;;;;;;7.88;100.00;101664.75;5035875;28;20029;-76
2022/11/29 06:41:31;;;;;;;37.50;14.10;;;;;;;7.91;100.00;101666.88;5035319;28;20039;-72
2022/11/29 06:43:57;;;;;;;35.05;13.68;;;;;;;7.94;100.00;101668.97;5036661;28;20265;-73
2022/11/29 06:46:33;;;;;;;62.17;16.70;;;;;;;7.85;100.00;101659.06;5037185;28;20083;-72
2022/11/29 06:49:19;;;;;;;43.50;16.58;;;;;;;7.76;100.00;101672.25;5037857;28;20044;-75
2022/11/29 06:52:28;;;;;;;49.28;17.50;;;;;;;7.78;100.00;101678.28;5041200;28;20140;-73
2022/11/29 06:55:00;;;;;;;49.13;15.20;;;;;;;7.46;100.00;101677.84;4969850;28;20034;-75
2022/11/29 06:57:28;;;;;;;35.70;13.85;;;;;;;7.58;100.00;101688.28;4972932;28;20101;-74
2022/11/29 07:00:11;;;;;;;44.97;15.38;;;;;;;7.71;100.00;101689.97;5003823;28;20041;-73
2022/11/29 07:02:51;;;;;;;37.42;14.50;;;;;;;7.91;100.00;101688.38;5036909;28;21530;-73
2022/11/29 07:05:26;;;;;;;48.22;19.25;;;;;;;7.96;100.00;101687.34;5032526;28;20498;-73
2022/11/29 07:07:54;;;;;;;39.75;14.13;;;;;;;7.99;100.00;101689.44;5028146;28;20026;-73
2022/11/29 07:10:20;;;;;;;38.20;13.98;;;;;;;8.13;100.00;101699.16;5037957;28;20615;-72
2022/11/29 07:12:48;;;;;;;56.40;17.85;;;;;;;8.05;100.00;101690.88;5034209;28;20184;-73
2022/11/29 07:15:17;;;;;;;43.65;17.65;;;;;;;7.92;100.00;101699.16;5031105;28;20065;-72
2022/11/29 07:18:25;;;;;;;52.30;18.38;;;;;;;7.87;100.00;101699.38;5035571;28;20373;-72
2022/11/29 07:21:03;;;;;;;43.35;15.85;;;;;;;7.98;100.00;101704.56;5044168;28;20076;-75
2022/11/29 07:23:46;;;;;;;58.60;15.70;;;;;;;7.81;100.00;101714.66;5040503;28;20036;-73
2022/11/29 07:26:21;;;;;;;56.28;17.55;;;;;;;7.72;100.00;101711.94;5041197;28;20522;-73
2022/11/29 07:29:26;;;;;;;54.83;16.35;;;;;;;7.63;100.00;101708.41;5039945;28;20032;-74
2022/11/29 07:32:00;;;;;;;43.45;15.30;;;;;;;7.43;100.00;101715.56;5040556;28;20036;-76
2022/11/29 07:34:59;;;;;;;73.28;16.23;;;;;;;7.32;100.00;101714.31;5044314;28;20124;-73
2022/11/29 07:37:39;;;;;;;42.78;15.95;;;;;;;7.56;100.00;101721.22;5037675;28;20031;-72
2022/11/29 07:40:11;;;;;;;38.65;14.98;;;;;;;7.70;100.00;101727.38;5043624;28;20472;-74
2022/11/29 07:42:57;;;;;;;35.60;15.75;;;;;;;7.65;100.00;101719.19;5048973;28;20036;-73
2022/11/29 07:45:26;;;;;;;51.22;17.83;;;;;;;7.70;100.00;101725.41;5049649;28;20017;-73
2022/11/29 07:47:51;;;;;;;40.95;16.92;;;;;;;7.78;100.00;101726.50;5034987;28;20082;-74
2022/11/29 07:50:17;;;;;;;57.60;15.95;;;;;;;7.67;100.00;101737.25;5044549;28;20025;-73
2022/11/29 07:52:42;;;;;;;35.72;13.32;;;;;;;7.75;100.00;101729.97;5042009;28;20087;-73
2022/11/29 07:55:13;;;;;;;48.13;16.95;;;;;;;7.75;100.00;101729.97;5045366;28;20446;-73
2022/11/29 07:57:38;;;;;;;35.67;14.13;;;;;;;7.90;100.00;101734.13;5038248;28;20030;-74
2022/11/29 08:00:04;;;;;;;41.00;17.33;;;;;;;7.88;100.00;101742.00;5036881;28;20032;-72
2022/11/29 08:02:30;;;;;;;37.67;14.60;;;;;;;7.86;100.00;101744.31;5039959;28;20039;-72
2022/11/29 08:04:56;;;;;;;43.90;16.83;;;;;;;7.93;100.00;101739.84;5050352;28;20020;-74
2022/11/29 08:07:21;;;;;;;45.55;17.17;;;;;;;7.70;100.00;101741.31;5043435;28;20048;-74
2022/11/29 08:09:47;;;;;;;44.15;16.05;;;;;;;7.80;100.00;101748.44;5043137;28;20054;-73
2022/11/29 08:12:12;;;;;;;73.22;16.08;;;;;;;7.61;100.00;101749.72;5048177;28;20072;-73
2022/11/29 08:14:37;;;;;;;50.58;16.50;;;;;;;7.54;100.00;101761.38;5042536;28;20040;-73
2022/11/29 08:17:03;;;;;;;36.67;17.08;;;;;;;7.67;100.00;101758.69;5041886;28;20048;-73
2022/11/29 08:19:28;;;;;;;37.00;16.08;;;;;;;7.85;100.00;101754.66;5050796;28;20159;-73
2022/11/29 08:21:53;;;;;;;37.78;14.32;;;;;;;7.87;100.00;101763.50;5047086;28;20468;-72
2022/11/29 08:24:19;;;;;;;45.40;15.80;;;;;;;7.65;100.00;101759.06;5041424;28;20021;-73
2022/11/29 08:26:44;;;;;;;37.78;14.00;;;;;;;7.54;100.00;101764.16;5045640;28;20040;-73
2022/11/29 08:29:10;;;;;;;40.55;14.02;;;;;;;7.42;100.00;101766.88;5034386;28;20037;-73
2022/11/29 08:31:35;;;;;;;37.20;13.40;;;;;;;7.53;100.00;101770.09;5052101;28;20394;-75
2022/11/29 08:34:00;;;;;;;49.78;15.40;;;;;;;7.50;100.00;101771.56;5046217;28;20369;-72
2022/11/29 08:36:26;;;;;;;36.22;14.13;;;;;;;7.66;100.00;101776.56;5048404;28;20036;-73
2022/11/29 08:38:51;;;;;;;38.53;15.02;;;;;;;7.51;100.00;101767.63;5041296;28;20029;-76
2022/11/29 08:41:17;;;;;;;40.25;13.77;;;;;;;7.68;100.00;101777.88;5044143;28;20538;-72
2022/11/29 08:43:43;;;;;;;45.45;15.73;;;;;;;7.72;100.00;101780.81;5041237;28;20029;-73
2022/11/29 08:46:09;;;;;;;43.75;14.93;;;;;;;7.62;100.00;101772.81;5039214;28;20017;-72
2022/11/29 08:48:35;;;;;;;65.10;17.48;;;;;;;7.31;100.00;101777.53;5045974;28;20522;-73
2022/11/29 08:51:03;;;;;;;39.95;16.23;;;;;;;7.61;100.00;101782.31;5042080;28;20395;-74
2022/11/29 08:53:40;;;;;;;52.63;17.98;;;;;;;7.63;100.00;101791.16;5038469;28;20416;-72
2022/11/29 08:56:10;;;;;;;48.30;17.30;;;;;;;7.51;100.00;101789.09;5050587;28;20024;-74
2022/11/29 08:58:37;;;;;;;61.65;17.00;;;;;;;7.36;100.00;101787.69;5041178;28;21717;-74
2022/11/29 09:01:04;;;;;;;43.63;15.57;;;;;;;7.66;100.00;101791.31;5047098;28;20449;-73
2022/11/29 09:06:16;;;;;;;41.40;14.52;;;;;;;7.78;100.00;101798.13;5040283;28;20031;-74
2022/11/29 09:08:43;;;;;;;50.75;16.38;;;;;;;7.72;100.00;101803.09;5043819;28;20102;-73
2022/11/29 09:11:18;;;;;;;52.35;17.60;;;;;;;7.77;100.00;101802.09;5046933;28;20029;-72
2022/11/29 09:13:46;;;;;;;44.58;16.27;;;;;;;7.84;100.00;101797.63;5042957;28;20198;-73
2022/11/29 09:16:14;;;;;;;41.65;14.27;;;;;;;7.91;100.00;101803.47;5049346;28;20075;-72
2022/11/29 09:18:40;;;;;;;47.10;14.77;;;;;;;7.92;100.00;101804.28;5045742;28;20086;-72
2022/11/29 09:21:10;;;;;;;39.28;14.40;;;;;;;7.94;100.00;101805.56;5048777;28;20032;-72
2022/11/29 09:23:37;;;;;;;40.50;16.17;;;;;;;7.77;100.00;101814.03;5042289;28;20480;-74
2022/11/29 09:26:03;;;;;;;36.00;13.13;;;;;;;7.89;100.00;101816.94;5053552;28;20016;-72
2022/11/29 09:28:29;;;;;;;42.63;15.85;;;;;;;7.85;100.00;101813.19;5047700;28;20491;-72
2022/11/29 09:30:54;;;;;;;53.05;12.80;;;;;;;7.66;100.00;101813.63;5045125;28;20021;-73
2022/11/29 09:33:20;;;;;;;32.72;11.60;;;;;;;7.47;100.00;101818.78;5045435;28;20017;-71
2022/11/29 09:35:45;;;;;;;35.58;13.73;;;;;;;7.51;100.00;101812.22;5046747;28;20537;-74
2022/11/29 09:38:11;;;;;;;34.28;13.45;;;;;;;7.61;100.00;101824.13;5041525;28;20107;-75
2022/11/29 09:40:43;;;;;;;34.15;11.50;;;;;;;7.72;100.00;101823.41;5041651;28;20040;-73
2022/11/29 09:43:30;;;;;;;33.53;12.25;;;;;;;7.72;100.00;101830.97;5037689;28;20025;-73
2022/11/29 09:46:14;;;;;;;42.35;15.18;;;;;;;7.56;100.00;101833.47;5038710;28;20065;-74
2022/11/29 09:49:16;;;;;;;31.42;12.65;;;;;;;7.72;100.00;101829.00;5042143;28;20072;-73
2022/11/29 09:51:56;;;;;;;27.55;11.85;;;;;;;7.85;100.00;101841.06;5037132;28;20071;-73
2022/11/29 09:54:48;;;;;;;27.85;12.45;;;;;;;7.76;100.00;101840.28;5037133;28;20496;-75
2022/11/29 09:57:14;;;;;;;28.25;11.23;;;;;;;7.69;100.00;101846.38;5045918;28;20039;-73
2022/11/29 09:59:49;;;;;;;32.03;11.60;;;;;;;7.88;100.00;101847.94;5045228;28;20499;-72
2022/11/29 10:02:20;;;;;;;30.13;12.98;;;;;;;7.77;100.00;101844.69;5036557;28;20021;-73
2022/11/29 10:04:52;;;;;;;34.78;13.20;;;;;;;7.66;100.00;101846.25;5046700;28;20120;-73
2022/11/29 10:07:28;;;;;;;27.67;13.15;;;;;;;7.75;100.00;101844.22;5046965;28;20494;-73
2022/11/29 10:10:00;;;;;;;29.52;11.60;;;;;;;7.53;100.00;101845.31;5048352;28;20036;-72
2022/11/29 10:12:33;;;;;;;32.55;12.00;;;;;;;7.58;100.00;101841.53;5045624;28;20037;-72
2022/11/29 10:15:18;;;;;;;26.15;11.70;;;;;;;7.74;100.00;101839.81;5044830;28;20061;-73
2022/11/29 10:18:17;;;;;;;22.75;9.93;;;;;;;7.78;100.00;101832.41;5040859;28;20039;-73
2022/11/29 10:20:47;;;;;;;34.63;12.40;;;;;;;7.68;100.00;101841.97;5033203;28;20070;-72
2022/11/29 10:23:23;;;;;;;28.23;11.57;;;;;;;7.78;100.00;101839.94;5043697;28;20059;-72
2022/11/29 10:25:51;;;;;;;28.05;11.75;;;;;;;7.86;100.00;101834.34;5046999;28;20099;-72
2022/11/29 10:28:20;;;;;;;25.48;13.18;;;;;;;7.83;100.00;101835.00;5040662;28;20461;-76
2022/11/29 10:30:47;;;;;;;34.63;13.48;;;;;;;7.86;100.00;101842.72;5042171;28;20417;-73
2022/11/29 10:33:31;;;;;;;23.25;11.57;;;;;;;7.62;100.00;101829.38;5048893;28;20024;-72
2022/11/29 10:35:59;;;;;;;21.33;10.50;;;;;;;7.71;100.00;101838.50;5043927;28;20036;-73
2022/11/29 10:38:24;;;;;;;28.10;12.80;;;;;;;7.76;100.00;101840.28;5046140;28;20471;-72
2022/11/29 10:40:56;;;;;;;31.45;12.07;;;;;;;7.67;100.00;101847.84;5032780;28;20025;-72
2022/11/29 10:43:23;;;;;;;26.33;11.45;;;;;;;7.72;100.00;101840.16;5042888;28;20025;-72
2022/11/29 10:45:54;;;;;;;31.17;11.30;;;;;;;7.74;100.00;101848.19;5048687;28;20032;-72
2022/11/29 10:48:23;;;;;;;24.60;11.75;;;;;;;7.72;100.00;101844.91;5038470;28;20026;-72
2022/11/29 10:50:50;;;;;;;29.25;12.50;;;;;;;7.71;100.00;101829.31;5033214;28;20033;-73
2022/11/29 10:53:29;;;;;;;26.17;10.65;;;;;;;7.72;100.00;101839.34;5042014;28;20487;-74
2022/11/29 10:56:04;;;;;;;23.33;11.25;;;;;;;7.73;100.00;101846.53;5046429;28;20545;-72
2022/11/29 10:58:30;;;;;;;25.63;9.75;;;;;;;7.69;100.00;101848.34;5036579;28;20033;-73
2022/11/29 11:00:59;;;;;;;19.55;10.20;;;;;;;7.69;100.00;101856.72;5051271;28;20048;-75
2022/11/29 11:03:24;;;;;;;22.10;10.27;;;;;;;7.71;100.00;101846.84;5046200;28;20043;-72
2022/11/29 11:06:01;;;;;;;24.45;11.38;;;;;;;7.78;100.00;101851.94;5047804;28;20016;-76
2022/11/29 11:08:27;;;;;;;24.45;9.85;;;;;;;7.67;100.00;101856.22;5042226;28;20033;-72
2022/11/29 11:10:54;;;;;;;31.17;12.35;;;;;;;7.69;100.00;101856.72;5040414;28;20024;-72
2022/11/29 11:13:23;;;;;;;24.92;12.25;;;;;;;7.82;100.00;101844.53;5043943;28;20050;-73
2022/11/29 11:15:55;;;;;;;21.13;10.65;;;;;;;7.87;100.00;101851.88;5036604;28;20029;-74
2022/11/29 11:18:25;;;;;;;21.42;10.20;;;;;;;7.66;100.00;101858.19;5040906;28;20479;-74
2022/11/29 11:20:53;;;;;;;23.77;11.10;;;;;;;7.72;100.00;101856.06;5049774;28;20477;-75
2022/11/29 11:23:27;;;;;;;25.58;12.45;;;;;;;7.69;100.00;101853.91;5051128;28;20025;-73
2022/11/29 11:25:58;;;;;;;24.42;10.65;;;;;;;7.87;100.00;101852.69;5048402;28;20403;-76
2022/11/29 11:28:27;;;;;;;25.52;11.80;;;;;;;7.90;100.00;101854.78;5042210;28;20052;-73
2022/11/29 11:31:04;;;;;;;24.20;11.18;;;;;;;7.87;100.00;101855.47;5048312;28;20031;-72
2022/11/29 11:33:33;;;;;;;27.95;12.38;;;;;;;7.89;100.00;101855.97;5043724;28;20899;-73
2022/11/29 11:36:20;;;;;;;21.52;10.88;;;;;;;7.77;100.00;101866.19;5045460;28;20180;-72
2022/11/29 11:38:53;;;;;;;23.60;10.23;;;;;;;7.76;100.00;101861.75;5041303;28;20024;-72
2022/11/29 11:42:35;;;;;;;21.65;11.48;;;;;;;7.69;100.00;101853.91;5041578;28;20495;-72
2022/11/29 11:44:33;;;;;;;32.63;14.30;;;;;;;7.75;100.00;101860.94;5035912;28;20570;-72
2022/11/29 11:47:00;;;;;;;26.25;11.82;;;;;;;7.75;100.00;101858.16;5042007;28;20588;-72
2022/11/29 11:49:32;;;;;;;25.02;11.15;;;;;;;7.66;100.00;101857.38;5038578;28;20040;-72
2022/11/29 11:51:59;;;;;;;26.33;11.90;;;;;;;7.59;100.00;101851.50;5037612;28;20033;-73
2022/11/29 11:54:26;;;;;;;25.00;10.98;;;;;;;7.67;100.00;101853.44;5033271;28;20026;-73
2022/11/29 11:56:51;;;;;;;32.38;14.82;;;;;;;7.71;100.00;101854.41;5038257;28;20551;-72
2022/11/29 11:59:20;;;;;;;29.15;12.65;;;;;;;7.83;100.00;101857.31;5048778;28;20127;-76
2022/11/29 12:01:45;;;;;;;30.80;12.32;;;;;;;7.84;100.00;101860.91;5037513;28;20479;-73
2022/11/29 12:04:20;;;;;;;28.88;11.98;;;;;;;7.98;100.00;101864.28;5048435;28;20024;-73
2022/11/29 12:06:53;;;;;;;24.52;11.38;;;;;;;7.89;100.00;101866.31;5041396;28;20091;-72
2022/11/29 12:09:31;;;;;;;34.95;12.90;;;;;;;7.83;100.00;101865.66;5041833;28;20130;-72
2022/11/29 12:12:20;;;;;;;32.55;12.80;;;;;;;7.87;100.00;101869.41;5045406;28;20073;-75
2022/11/29 12:14:52;;;;;;;37.83;14.90;;;;;;;7.98;100.00;101869.03;5032589;28;20124;-73
2022/11/29 12:17:37;;;;;;;26.98;12.05;;;;;;;8.04;100.00;101870.50;5036439;28;20028;-73
2022/11/29 12:20:03;;;;;;;32.83;15.18;;;;;;;8.02;100.00;101881.16;5043262;28;20034;-74
2022/11/29 12:22:37;;;;;;;31.67;12.50;;;;;;;8.06;100.00;101876.53;5047251;28;20028;-73
2022/11/29 12:25:09;;;;;;;33.40;13.88;;;;;;;8.09;100.00;101870.28;5044039;28;20109;-73
2022/11/29 12:27:34;;;;;;;31.58;13.73;;;;;;;8.23;100.00;101882.03;5043347;28;20029;-72
2022/11/29 12:30:00;;;;;;;36.38;15.32;;;;;;;8.17;100.00;101872.22;5046636;28;20419;-72
2022/11/29 12:32:39;;;;;;;38.63;15.43;;;;;;;8.20;100.00;101879.91;5042243;28;20354;-73
2022/11/29 12:35:23;;;;;;;31.30;13.52;;;;;;;8.20;100.00;101888.28;5046027;28;20104;-72
2022/11/29 12:38:08;;;;;;;34.92;15.23;;;;;;;8.19;100.00;101883.84;5040335;28;20021;-76
2022/11/29 12:41:02;;;;;;;34.38;14.77;;;;;;;8.26;100.00;101888.88;5038963;28;20082;-74
2022/11/29 12:43:46;;;;;;;47.55;16.88;;;;;;;8.26;100.00;101886.09;5006163;28;20044;-73
2022/11/29 12:46:15;;;;;;;39.17;16.58;;;;;;;8.33;100.00;101887.22;5033687;28;20021;-72
2022/11/29 12:48:57;;;;;;;38.85;14.68;;;;;;;8.34;100.00;101893.59;5043350;28;20508;-72
2022/11/29 12:51:42;;;;;;;37.67;15.40;;;;;;;8.39;100.00;101895.38;5044454;28;20025;-73
2022/11/29 12:54:29;;;;;;;30.92;13.77;;;;;;;8.39;100.00;101896.22;5047791;28;20285;-76
2022/11/29 12:57:06;;;;;;;35.47;14.23;;;;;;;8.49;100.00;101895.00;5054167;28;20033;-75
2022/11/29 12:59:59;;;;;;;32.95;13.32;;;;;;;8.54;100.00;101897.63;5043465;28;20024;-73
2022/11/29 13:02:43;;;;;;;37.63;15.02;;;;;;;8.47;100.00;101897.31;5044855;28;20476;-73
2022/11/29 13:05:32;;;;;;;26.65;13.65;;;;;;;8.30;100.00;101892.63;5038945;28;20043;-72
2022/11/29 13:08:29;;;;;;;34.00;14.57;;;;;;;8.39;100.00;101892.59;5047437;28;20069;-73
2022/11/29 13:11:13;;;;;;;39.88;13.68;;;;;;;8.37;100.00;101900.47;5041398;28;20074;-73
2022/11/29 13:13:50;;;;;;;26.80;12.50;;;;;;;8.42;100.00;101901.13;5032522;28;20044;-75
2022/11/29 13:16:55;;;;;;;29.98;14.50;;;;;;;8.43;100.00;101901.94;5043136;28;20495;-74
2022/11/29 13:19:46;;;;;;;31.52;13.75;;;;;;;8.29;100.00;101897.41;5031782;28;20485;-73
2022/11/29 13:22:45;;;;;;;40.05;14.02;;;;;;;8.28;100.00;101895.75;5039800;28;20029;-73
2022/11/29 13:25:29;;;;;;;33.58;13.75;;;;;;;8.36;100.00;101899.66;5039925;28;20025;-73
2022/11/29 13:28:02;;;;;;;33.30;13.77;;;;;;;8.34;100.00;101894.41;5046930;28;20028;-73
2022/11/29 13:30:27;;;;;;;34.17;13.43;;;;;;;8.36;100.00;101896.88;5041500;28;20766;-73
2022/11/29 13:32:58;;;;;;;28.50;12.73;;;;;;;8.37;100.00;101898.53;5037549;28;20033;-74
2022/11/29 13:35:42;;;;;;;29.63;13.52;;;;;;;8.43;100.00;101899.16;5037950;28;20028;-74
2022/11/29 13:38:17;;;;;;;29.92;12.93;;;;;;;8.43;100.00;101901.94;5038141;28;20135;-73
2022/11/29 13:40:42;;;;;;;26.40;12.45;;;;;;;8.53;100.00;101907.94;5036634;28;20037;-74
2022/11/29 13:43:16;;;;;;;35.15;13.75;;;;;;;8.47;100.00;101906.50;5032051;28;20021;-73
2022/11/29 13:46:10;;;;;;;28.10;12.10;;;;;;;8.50;100.00;101907.81;5037810;28;20029;-73
2022/11/29 13:48:56;;;;;;;24.25;11.65;;;;;;;8.45;100.00;101905.22;5035099;28;20029;-74
2022/11/29 13:51:34;;;;;;;31.35;11.45;;;;;;;8.47;100.00;101911.28;5041159;28;20072;-73
2022/11/29 13:54:05;;;;;;;27.98;11.48;;;;;;;8.44;100.00;101909.16;5040204;28;20025;-72
2022/11/29 13:56:45;;;;;;;29.50;9.85;;;;;;;8.48;100.00;101910.13;5031660;28;20064;-72
2022/11/29 13:59:47;;;;;;;23.65;9.45;;;;;;;8.44;100.00;101909.16;5041540;28;21038;-73
2022/11/29 14:02:30;;;;;;;21.10;8.77;;;;;;;8.46;100.00;101906.84;5031074;28;20123;-73
2022/11/29 14:04:55;;;;;;;25.90;9.90;;;;;;;8.47;100.00;101902.91;5044013;28;20755;-74
2022/11/29 14:07:21;;;;;;;22.08;9.63;;;;;;;8.53;100.00;101901.53;5045009;28;20032;-73
2022/11/29 14:10:02;;;;;;;26.98;7.78;;;;;;;8.52;100.00;101908.31;5044259;28;20107;-73
2022/11/29 14:12:37;;;;;;;25.98;8.13;;;;;;;8.44;100.00;101903.59;5044630;28;20318;-73
2022/11/29 14:15:22;;;;;;;17.10;7.95;;;;;;;8.49;100.00;101917.34;5042133;28;20047;-73
2022/11/29 14:17:55;;;;;;;19.15;7.93;;;;;;;8.72;100.00;101920.63;5036207;28;20072;-73
2022/11/29 14:20:27;;;;;;;;;;;;;;;8.52;100.00;101922.25;5036880;28;20383;-75
2022/11/29 14:23:05;;;;;;;14.73;7.45;;;;;;;8.49;100.00;101917.34;5040457;28;19921;-74
2022/11/29 14:25:52;;;;;;;21.00;8.82;;;;;;;8.55;100.00;101921.56;5032858;28;20783;-73
2022/11/29 14:28:20;;;;;;;22.38;7.75;;;;;;;8.48;100.00;101921.28;5030671;28;20512;-73
2022/11/29 14:30:49;;;;;;;20.25;8.07;;;;;;;8.44;100.00;101912.78;5040071;28;20443;-72
2022/11/29 14:33:23;;;;;;;20.05;8.18;;;;;;;8.43;100.00;101919.53;5029581;28;20025;-73
2022/11/29 14:36:00;;;;;;;21.17;8.90;;;;;;;8.46;100.00;101924.41;5039549;28;20385;-73
2022/11/29 14:38:33;;;;;;;23.83;9.32;;;;;;;8.50;100.00;101927.34;5037568;28;20029;-73
2022/11/29 14:41:12;;;;;;;18.85;8.82;;;;;;;8.50;100.00;101921.78;5038618;28;20029;-72
2022/11/29 14:43:40;;;;;;;26.05;9.57;;;;;;;8.58;100.00;101929.28;5036614;28;20496;-72
2022/11/29 14:46:14;;;;;;;20.83;8.75;;;;;;;8.45;100.00;101938.69;5033594;28;20380;-74
2022/11/29 14:48:45;;;;;;;20.20;9.45;;;;;;;8.43;100.00;101927.91;5035866;28;20029;-76
2022/11/29 14:51:16;;;;;;;23.88;9.65;;;;;;;8.50;100.00;101932.94;5038642;28;20044;-73
2022/11/29 14:53:44;;;;;;;26.20;9.10;;;;;;;8.52;100.00;101939.81;5038583;28;20032;-74
2022/11/29 14:56:28;;;;;;;24.38;10.45;;;;;;;8.48;100.00;101938.03;5035343;28;20065;-74
2022/11/29 14:59:31;;;;;;;20.40;10.35;;;;;;;8.47;100.00;101936.38;5032063;28;20082;-73
2022/11/29 15:02:01;;;;;;;28.63;10.43;;;;;;;8.42;100.00;101940.19;5035867;28;20013;-73
2022/11/29 15:04:31;;;;;;;25.38;9.77;;;;;;;8.46;100.00;101940.34;5043274;28;20029;-74
2022/11/29 15:06:58;;;;;;;22.00;10.43;;;;;;;8.46;100.00;101941.16;5042047;28;20473;-73
2022/11/29 15:09:25;;;;;;;19.50;9.68;;;;;;;8.40;100.00;101941.66;5043453;28;20025;-73
2022/11/29 15:11:56;;;;;;;24.60;8.68;;;;;;;8.40;100.00;101952.81;5034695;28;20025;-77
2022/11/29 15:14:26;;;;;;;22.50;9.68;;;;;;;8.45;100.00;101945.09;5035445;28;20040;-72
2022/11/29 15:17:03;;;;;;;20.58;9.65;;;;;;;8.46;100.00;101940.34;5036963;28;20035;-73
2022/11/29 15:19:50;;;;;;;18.17;9.85;;;;;;;8.44;100.00;101942.66;5041113;28;20040;-72
2022/11/29 15:22:17;;;;;;;21.38;10.52;;;;;;;8.42;100.00;101951.34;5033563;28;20083;-74
2022/11/29 15:24:50;;;;;;;30.30;10.38;;;;;;;8.49;100.00;101951.63;5043653;28;20033;-72
2022/11/29 15:27:17;;;;;;;18.52;9.13;;;;;;;8.44;100.00;101948.22;5029606;28;20345;-75
2022/11/29 15:29:47;;;;;;;22.98;10.45;;;;;;;8.43;100.00;101949.38;5036096;28;20049;-77
2022/11/29 15:32:29;;;;;;;22.20;10.70;;;;;;;8.47;100.00;101959.50;5031858;28;20036;-73
2022/11/29 15:34:55;;;;;;;29.10;10.90;;;;;;;8.40;100.00;101959.22;5034092;28;20030;-73
2022/11/29 15:37:33;;;;;;;23.20;9.43;;;;;;;8.42;100.00;101954.16;5040587;28;20029;-72
2022/11/29 15:40:02;;;;;;;22.20;9.98;;;;;;;8.66;100.00;101961.06;5036897;28;20033;-72
2022/11/29 15:42:36;;;;;;;24.15;10.10;;;;;;;8.63;100.00;101956.97;5035924;28;20479;-74
2022/11/29 15:45:24;;;;;;;26.13;9.43;;;;;;;8.60;100.00;101952.06;5039980;28;20022;-72
2022/11/29 15:47:51;;;;;;;25.65;9.38;;;;;;;8.57;100.00;101961.09;5031264;28;20041;-73
2022/11/29 15:50:28;;;;;;;23.38;10.77;;;;;;;8.48;100.00;101949.19;5043572;28;20040;-72
2022/11/29 15:52:57;;;;;;;21.50;9.07;;;;;;;8.53;100.00;101968.53;5039348;28;20029;-75
2022/11/29 15:55:23;;;;;;;20.20;8.48;;;;;;;8.57;100.00;101961.09;5041360;28;20438;-73
2022/11/29 15:57:52;;;;;;;28.95;9.75;;;;;;;8.56;100.00;101953.91;5040775;28;20487;-72
2022/11/29 16:00:22;;;;;;;23.20;9.88;;;;;;;8.59;100.00;101950.44;5030854;28;20048;-73
2022/11/29 16:02:54;;;;;;;29.70;13.43;;;;;;;8.56;100.00;101945.53;5031053;28;20030;-72
2022/11/29 16:05:21;;;;;;;;;;;;;;;8.66;100.00;101952.69;5045603;28;20025;-74
2022/11/29 16:07:49;;;;;;;25.92;10.38;;;;;;;8.69;100.00;101952.81;5037314;28;19970;-72
2022/11/29 16:10:26;;;;;;;20.05;7.80;;;;;;;8.63;100.00;101962.56;5032523;28;20017;-72
2022/11/29 16:12:56;;;;;;;23.23;9.93;;;;;;;8.61;100.00;101964.06;5034267;28;20037;-72
2022/11/29 16:15:31;;;;;;;27.27;12.95;;;;;;;8.59;100.00;101961.59;5039521;28;20094;-72
2022/11/29 16:18:09;;;;;;;29.75;11.98;;;;;;;8.58;100.00;101959.97;5033220;28;20445;-72
2022/11/29 16:20:35;;;;;;;25.65;12.07;;;;;;;8.48;100.00;101965.94;5038884;28;20406;-72
2022/11/29 16:23:14;;;;;;;18.17;9.70;;;;;;;8.58;100.00;101965.56;5037761;28;20069;-72
2022/11/29 16:26:04;;;;;;;28.13;10.13;;;;;;;8.57;100.00;101958.31;5033195;28;20099;-72
2022/11/29 16:28:45;;;;;;;19.15;11.35;;;;;;;8.63;100.00;101967.31;5035652;28;20024;-72
2022/11/29 16:31:33;;;;;;;24.75;10.95;;;;;;;8.63;100.00;101962.56;5033076;28;20033;-72
2022/11/29 16:34:07;;;;;;;42.92;16.95;;;;;;;8.60;100.00;101968.81;5035573;28;20063;-72
2022/11/29 16:36:32;;;;;;;43.15;17.60;;;;;;;8.63;100.00;101973.72;5034176;28;20119;-73
2022/11/29 16:39:04;;;;;;;31.33;15.57;;;;;;;8.58;100.00;101979.50;5035468;28;20031;-75
2022/11/29 16:41:35;;;;;;;51.80;19.40;;;;;;;8.52;100.00;101978.06;5037954;28;20384;-73
2022/11/29 16:44:03;;;;;;;46.67;17.80;;;;;;;8.67;100.00;101982.25;5035185;28;20030;-72
2022/11/29 16:46:38;;;;;;;34.22;11.63;;;;;;;8.62;100.00;101977.69;5038355;28;20037;-72
2022/11/29 16:49:32;;;;;;;29.52;13.95;;;;;;;8.59;100.00;101983.91;5040726;28;20086;-72
2022/11/29 16:51:58;;;;;;;28.20;13.32;;;;;;;8.70;100.00;101989.94;5024534;28;20492;-73
2022/11/29 16:54:26;;;;;;;42.50;16.92;;;;;;;8.64;100.00;101986.50;5040632;28;20126;-72
2022/11/29 16:56:54;;;;;;;32.92;13.25;;;;;;;8.58;100.00;101987.88;5035294;28;20037;-72
2022/11/29 16:59:23;;;;;;;30.08;13.23;;;;;;;8.64;100.00;101992.09;5037802;28;20171;-72
2022/11/29 17:01:48;;;;;;;46.35;13.48;;;;;;;8.58;100.00;102001.84;5035715;28;20543;-72
2022/11/29 17:04:13;;;;;;;32.15;13.55;;;;;;;8.63;100.00;101992.44;5035100;28;20029;-72
2022/11/29 17:06:39;;;;;;;26.08;13.55;;;;;;;8.73;100.00;102003.22;5036441;28;20142;-72
2022/11/29 17:09:05;;;;;;;35.03;15.18;;;;;;;8.71;100.00;101997.97;5030662;28;20112;-73
2022/11/29 17:11:30;;;;;;;37.00;13.27;;;;;;;8.65;100.00;102004.91;5036087;28;20025;-73
2022/11/29 17:13:58;;;;;;;36.58;13.52;;;;;;;8.81;100.00;102001.50;5030585;28;20102;-73
2022/11/29 17:16:23;;;;;;;65.57;29.38;;;;;;;8.70;100.00;102003.88;5031879;28;20036;-72
2022/11/29 17:18:51;;;;;;;55.80;20.55;;;;;;;8.72;100.00;102005.16;5035637;28;20033;-72
2022/11/29 17:21:30;;;;;;;26.63;13.13;;;;;;;8.62;100.00;102001.97;5035306;28;20025;-73
2022/11/29 17:23:55;;;;;;;28.80;12.00;;;;;;;8.68;100.00;102006.19;5045807;28;20338;-75
2022/11/29 17:26:22;;;;;;;38.92;12.98;;;;;;;8.60;100.00;101996.72;5039424;28;20494;-72
2022/11/29 17:28:49;;;;;;;35.67;16.48;;;;;;;8.59;100.00;102013.81;5033641;28;20514;-72
2022/11/29 17:31:17;;;;;;;35.30;13.38;;;;;;;8.55;100.00;102010.88;5034361;28;20362;-72
2022/11/29 17:33:42;;;;;;;28.70;12.80;;;;;;;8.66;100.00;102017.69;5033501;28;20057;-72
2022/11/29 17:36:10;;;;;;;35.38;13.57;;;;;;;8.67;100.00;102019.34;5030525;28;20192;-74
2022/11/29 17:38:36;;;;;;;25.60;10.98;;;;;;;8.57;100.00;102019.72;5036907;28;20032;-73
2022/11/29 17:41:10;;;;;;;31.23;13.77;;;;;;;8.54;100.00;102025.97;5040046;28;20380;-72
2022/11/29 17:43:35;;;;;;;36.20;15.35;;;;;;;8.53;100.00;102027.13;5037876;28;20280;-72
2022/11/29 17:46:13;;;;;;;32.42;12.98;;;;;;;8.52;100.00;102028.28;5042195;28;20035;-75
2022/11/29 17:48:38;;;;;;;24.15;13.68;;;;;;;8.53;100.00;102047.47;5036168;28;20030;-75
2022/11/29 17:51:05;;;;;;;36.20;15.00;;;;;;;8.60;100.00;102035.81;5033844;28;20556;-75